EW9119 Weather Reports


time (UTC)temp
F
wind
direction
speed
knots
gust
knots
rain 1hr
in
rain 24hr
in
rain mn
in
humidity
%
barometer
mb
20260906163020 78 171 0.0 0.0 0.00 0.02 0.00 68 1011.7
20260906161510 78 181 0.0 1.7 0.00 0.02 0.00 67 1011.5
20260906160004 78 176 0.0 0.9 0.00 0.02 0.00 67 1011.6
20260906154600 79 153 0.0 2.6 0.00 0.02 0.00 65 1011.6
20260906153055 79 134 0.0 0.0 0.00 0.02 0.00 66 1011.9
20260906151552 77 313 0.0 0.0 0.00 0.02 0.00 58 1011.8
20260906150048 79 11 0.0 3.5 0.00 0.02 0.00 64 1011.8
20260906144541 76 338 0.0 0.0 0.00 0.02 0.00 47 1012.0
20260906143045 76 241 0.0 0.0 0.00 0.02 0.00 55 1012.0
20260906141533 75 132 0.0 0.0 0.00 0.02 0.00 47 1011.9
20260906140028 75 59 0.0 0.0 0.00 0.02 0.00 47 1011.8
20260906134523 75 119 0.0 0.0 0.00 0.02 0.00 25 1011.6
20260906133021 75 289 0.0 0.0 0.00 0.02 0.00 3 1011.4
20260906131516 73 5 0.0 0.0 0.00 0.02 0.00 1 1011.3
20260906130010 72 146 0.0 0.0 0.00 0.02 0.00 1 1011.5
20260906124507 72 79 0.0 0.0 0.00 0.02 0.00 1 1011.2
20260906123002 72 186 0.0 0.0 0.00 0.02 0.00 1 1011.4
20260906121611 72 136 0.0 0.0 0.00 0.02 0.00 1 1011.1
20260906120054 71 137 0.0 0.0 0.00 0.02 0.00 1 1011.0
20260906114600 71 132 0.0 0.0 0.00 0.02 0.00 1 1010.8
20260906113056 71 127 0.0 0.0 0.00 0.02 0.00 1 1010.9
20260906111541 71 125 0.0 0.0 0.00 0.02 0.00 1 1010.7
20260906110036 72 66 0.0 0.0 0.00 0.02 0.00 1 1010.5
20260906104532 72 131 0.0 0.0 0.00 0.02 0.00 1 1010.4
20260906103028 72 119 0.0 0.0 0.00 0.02 0.00 1 1010.4
20260906101523 72 158 0.0 0.0 0.00 0.02 0.00 1 1010.1
20260906100020 72 135 0.0 0.0 0.00 0.02 0.00 1 1010.0
20260906094518 71 135 0.0 0.0 0.00 0.02 0.00 1 1009.8
20260906093013 71 132 0.0 0.0 0.00 0.02 0.00 1 1009.8
20260906091516 71 130 0.0 0.0 0.00 0.02 0.00 1 1009.7
20260906090007 71 159 0.0 0.0 0.00 0.02 0.00 1 1009.4
20260906084503 71 267 0.0 0.0 0.00 0.02 0.00 1 1009.3
20260906083059 70 270 0.0 0.0 0.00 0.02 0.00 1 1009.2
20260906081559 69 273 0.0 0.0 0.00 0.02 0.00 1 1008.9
20260906080050 69 273 0.0 0.0 0.00 0.02 0.00 1 1009.0
20260906074546 69 273 0.0 0.0 0.00 0.02 0.00 1 1009.0
20260906073045 69 273 0.0 0.0 0.00 0.02 0.00 1 1009.0
20260906071536 69 273 0.0 0.0 0.00 0.02 0.00 1 1009.2
20260906070032 70 273 0.0 0.0 0.00 0.02 0.00 1 1009.2
20260906064529 70 273 0.0 0.0 0.00 0.02 0.00 1 1009.2
20260906063023 70 273 0.0 0.0 0.00 0.02 0.00 1 1009.3
20260906061520 70 273 0.0 0.0 0.00 0.02 0.00 1 1009.2
20260906060014 70 273 0.0 0.0 0.00 0.02 0.00 1 1009.2
20260906054510 70 273 0.0 0.0 0.00 0.02 0.00 1 1009.4
20260906053005 71 273 0.0 0.0 0.00 0.02 0.00 1 1009.3
20260906051502 71 273 0.0 0.0 0.00 0.02 0.00 1 1009.3
20260906050112 71 273 0.0 0.0 0.00 0.02 0.00 1 1009.5
20260906044554 72 273 0.0 0.0 0.00 0.02 0.00 1 1009.6
20260906043050 72 273 0.0 0.0 0.00 0.02 0.00 1 1009.7
20260906041547 72 273 0.0 0.0 0.00 0.02 0.00 1 1009.6
20260906040043 72 273 0.0 0.0 0.00 0.02 0.00 1 1009.6
20260906034540 73 273 0.0 0.0 0.00 0.03 0.02 1 1009.7
20260906033034 73 273 0.0 0.0 0.00 0.03 0.02 1 1009.7
20260906031551 73 273 0.0 0.0 0.00 0.03 0.02 3 1009.6
20260906030023 73 273 0.0 0.0 0.00 0.03 0.02 13 1009.7
20260906024520 73 304 0.0 0.0 0.00 0.03 0.02 27 1009.3
20260906023015 74 304 0.0 0.0 0.00 0.03 0.02 38 1009.1
20260906021511 74 304 0.0 0.0 0.00 0.03 0.02 44 1009.0
20260906020006 74 304 0.0 0.0 0.00 0.03 0.02 49 1008.9
20260906014507 75 304 0.0 0.0 0.00 0.03 0.02 55 1009.0
20260906013058 75 304 0.0 0.0 0.00 0.03 0.02 60 1008.8
20260906011601 76 304 0.0 0.0 0.00 0.03 0.02 63 1008.6
20260906010049 76 304 0.0 0.0 0.00 0.03 0.02 65 1008.5
20260906004551 77 304 0.0 0.0 0.00 0.03 0.02 68 1008.3
20260906003049 78 304 0.0 0.0 0.00 0.03 0.02 69 1008.1
20260906001544 79 304 0.0 0.0 0.00 0.03 0.02 69 1008.1
20260906000035 80 304 0.0 0.0 0.00 0.03 0.02 69 1008.0
20260905234533 81 304 0.0 0.0 0.00 0.03 0.02 68 1007.9
20260905233025 82 304 0.0 0.0 0.00 0.03 0.02 67 1007.8
20260905231532 83 304 0.0 0.0 0.00 0.03 0.02 65 1007.5
20260905230017 83 303 0.0 0.0 0.00 0.03 0.02 64 1007.5
20260905224513 83 296 0.0 0.0 0.00 0.03 0.02 65 1007.7
20260905223008 83 309 0.0 0.0 0.00 0.03 0.02 60 1007.6
20260905221506 83 326 0.0 0.0 0.00 0.03 0.02 61 1007.8
20260905220001 83 306 0.0 0.0 0.00 0.04 0.02 60 1008.0
20260905214604 83 305 0.0 0.0 0.00 0.04 0.02 65 1007.9
20260905213055 81 325 0.0 0.0 0.00 0.04 0.02 67 1008.2
20260905211551 82 325 0.0 0.0 0.00 0.04 0.02 68 1008.2
20260905210103 84 302 0.0 0.9 0.00 0.04 0.02 66 1007.9
20260905204547 83 331 0.0 0.0 0.00 0.04 0.02 66 1007.5
20260905203044 82 331 0.0 0.0 0.00 0.04 0.02 65 1007.9
20260905201539 81 305 0.0 0.0 0.00 0.04 0.02 23 1008.3
20260905200038 80 317 0.0 0.0 0.00 0.04 0.02 1 1008.1
20260905183022 76 269 0.0 0.0 0.02 0.04 0.02 37 1008.7
20260905181519 79 269 0.0 0.9 0.01 0.03 0.01 71 1008.9
20260905180014 88 355 0.9 8.7 0.00 0.02 0.00 55 1009.0
20260905174512 95 298 0.0 0.0 0.00 0.02 0.00 49 1008.0
20260905173006 96 275 0.0 0.0 0.00 0.02 0.00 50 1008.1
20260905171501 96 329 0.0 0.0 0.00 0.02 0.00 49 1008.6
20260905170058 95 293 0.0 0.0 0.00 0.02 0.00 51 1009.1
20260905164557 95 313 0.0 0.0 0.00 0.02 0.00 54 1009.3